createdAt,value
2023-02-06T00:02:27.820Z,-4.39
2023-02-06T00:04:56.689Z,-4.31
2023-02-06T00:07:25.861Z,-4.55
2023-02-06T00:09:54.953Z,-4.38
2023-02-06T00:12:24.360Z,-4.27
2023-02-06T00:14:54.896Z,-4.13
2023-02-06T00:17:24.113Z,-4.44
2023-02-06T00:19:52.898Z,-4.46
2023-02-06T00:22:22.053Z,-4.39
2023-02-06T00:24:51.128Z,-4.23
2023-02-06T00:27:20.750Z,-4.14
2023-02-06T00:29:50.065Z,-4.20
2023-02-06T00:32:20.743Z,-3.99
2023-02-06T00:34:49.475Z,-3.93
2023-02-06T00:37:18.732Z,-4.01
2023-02-06T00:39:47.755Z,-3.89
2023-02-06T00:42:16.755Z,-4.07
2023-02-06T00:44:47.006Z,-4.15
2023-02-06T00:47:17.563Z,-4.12
2023-02-06T00:49:48.685Z,-4.00
2023-02-06T00:52:17.636Z,-4.15
2023-02-06T00:54:48.516Z,-4.23
2023-02-06T00:57:17.603Z,-4.04
2023-02-06T00:59:46.609Z,-4.18
2023-02-06T01:02:15.707Z,-4.33
2023-02-06T01:04:44.334Z,-4.14
2023-02-06T01:07:14.933Z,-4.27
2023-02-06T01:09:43.982Z,-4.42
2023-02-06T01:12:13.128Z,-4.31
2023-02-06T01:14:42.481Z,-4.15
2023-02-06T01:17:13.857Z,-4.21
2023-02-06T01:19:42.574Z,-4.09
2023-02-06T01:22:12.460Z,-4.27
2023-02-06T01:24:43.044Z,-4.41
2023-02-06T01:27:12.999Z,-4.48
2023-02-06T01:29:43.385Z,-4.86
2023-02-06T01:32:12.479Z,-4.83
2023-02-06T01:34:41.171Z,-4.83
2023-02-06T01:37:11.091Z,-4.72
2023-02-06T01:39:42.634Z,-4.74
2023-02-06T01:42:12.629Z,-4.75
2023-02-06T01:44:41.770Z,-4.73
2023-02-06T01:47:11.741Z,-4.60
2023-02-06T01:49:43.208Z,-4.75
2023-02-06T01:52:16.671Z,-4.73
2023-02-06T01:54:51.333Z,-4.77
2023-02-06T01:57:21.598Z,-4.52
2023-02-06T01:59:55.681Z,-4.43
2023-02-06T02:02:27.355Z,-4.57
2023-02-06T02:04:56.268Z,-4.89
2023-02-06T02:07:27.974Z,-5.41
2023-02-06T02:09:58.493Z,-5.31
2023-02-06T02:12:30.146Z,-5.46
2023-02-06T02:14:59.720Z,-5.13
2023-02-06T02:17:34.659Z,-5.11
2023-02-06T02:20:24.051Z,-4.72
2023-02-06T02:23:02.742Z,-4.70
2023-02-06T02:26:21.951Z,-4.50
2023-02-06T02:29:26.579Z,-4.42
2023-02-06T02:32:26.269Z,-4.62
2023-02-06T02:35:16.028Z,-4.78
2023-02-06T02:37:55.505Z,-5.09
2023-02-06T02:40:27.999Z,-5.31
2023-02-06T02:43:05.297Z,-5.07
2023-02-06T02:45:39.477Z,-5.01
2023-02-06T02:48:12.790Z,-5.12
2023-02-06T02:50:43.754Z,-5.09
2023-02-06T02:53:13.307Z,-4.75
2023-02-06T02:55:42.411Z,-4.87
2023-02-06T02:58:15.267Z,-4.86
2023-02-06T03:00:47.592Z,-4.60
2023-02-06T03:03:20.726Z,-5.15
2023-02-06T03:05:59.833Z,-4.66
2023-02-06T03:08:33.790Z,-4.93
2023-02-06T03:11:10.239Z,-4.74
2023-02-06T03:13:41.250Z,-5.13
2023-02-06T03:16:14.421Z,-5.19
2023-02-06T03:18:46.037Z,-5.65
2023-02-06T03:21:21.142Z,-5.37
2023-02-06T03:23:52.791Z,-5.53
2023-02-06T03:26:24.433Z,-5.45
2023-02-06T03:28:54.818Z,-5.40
2023-02-06T03:31:28.184Z,-5.18
2023-02-06T03:34:00.980Z,-5.25
2023-02-06T03:36:31.630Z,-5.31
2023-02-06T03:39:00.785Z,-5.08
2023-02-06T03:41:36.215Z,-5.08
2023-02-06T03:44:10.134Z,-5.22
2023-02-06T03:46:39.306Z,-5.13
2023-02-06T03:49:09.836Z,-5.28
2023-02-06T03:51:43.510Z,-5.42
2023-02-06T03:54:13.677Z,-5.51
2023-02-06T03:56:46.206Z,-5.27
2023-02-06T03:59:15.542Z,-5.19
2023-02-06T04:01:45.832Z,-5.07
2023-02-06T04:04:16.252Z,-5.13
2023-02-06T04:06:46.847Z,-5.15
2023-02-06T04:09:15.901Z,-5.63
2023-02-06T04:11:44.971Z,-5.25
2023-02-06T04:14:14.267Z,-5.18
2023-02-06T04:16:43.022Z,-5.24
2023-02-06T04:19:12.097Z,-5.03
2023-02-06T04:21:41.186Z,-5.03
2023-02-06T04:24:11.687Z,-4.93
2023-02-06T04:26:40.778Z,-4.92
2023-02-06T04:29:09.847Z,-5.04
2023-02-06T04:31:38.605Z,-5.14
2023-02-06T04:34:08.033Z,-5.08
2023-02-06T04:36:37.103Z,-5.03
2023-02-06T04:39:07.321Z,-4.77
2023-02-06T04:41:37.891Z,-4.75
2023-02-06T04:44:07.119Z,-4.89
2023-02-06T04:46:36.816Z,-5.10
2023-02-06T04:49:06.095Z,-4.90
2023-02-06T04:51:35.199Z,-4.97
2023-02-06T04:54:04.567Z,-4.84
2023-02-06T04:56:33.978Z,-4.85
2023-02-06T04:59:04.584Z,-4.74
2023-02-06T05:01:34.159Z,-4.80
2023-02-06T05:04:03.363Z,-4.78
2023-02-06T05:06:32.624Z,-4.75
2023-02-06T05:09:02.060Z,-4.93
2023-02-06T05:11:31.454Z,-5.00
2023-02-06T05:14:00.519Z,-4.80
2023-02-06T05:16:30.796Z,-4.95
2023-02-06T05:18:59.943Z,-5.20
2023-02-06T05:21:29.081Z,-5.47
2023-02-06T05:23:58.236Z,-5.39
2023-02-06T05:26:28.096Z,-5.19
2023-02-06T05:28:56.867Z,-5.19
2023-02-06T05:31:26.151Z,-5.19
2023-02-06T05:33:56.826Z,-5.27
2023-02-06T05:36:26.093Z,-5.39
2023-02-06T05:38:55.177Z,-5.32
2023-02-06T05:41:25.187Z,-5.11
2023-02-06T05:43:53.958Z,-5.47
2023-02-06T05:46:23.210Z,-5.52
2023-02-06T05:48:52.542Z,-5.51
2023-02-06T05:51:23.145Z,-5.45
2023-02-06T05:53:52.304Z,-5.75
2023-02-06T05:56:21.367Z,-5.55
2023-02-06T05:58:50.157Z,-5.50
2023-02-06T06:01:19.260Z,-5.65
2023-02-06T06:03:48.417Z,-5.47
2023-02-06T06:06:17.399Z,-5.63
2023-02-06T06:08:47.917Z,-5.47
2023-02-06T06:11:17.575Z,-5.72
2023-02-06T06:13:46.373Z,-5.79
2023-02-06T06:16:15.594Z,-5.61
2023-02-06T06:18:44.599Z,-5.49
2023-02-06T06:21:13.620Z,-5.83
2023-02-06T06:23:43.671Z,-5.85
2023-02-06T06:26:13.836Z,-5.24
2023-02-06T06:28:42.599Z,-5.62
2023-02-06T06:31:13.074Z,-5.97
2023-02-06T06:33:43.075Z,-6.10
2023-02-06T06:36:14.475Z,-5.58
2023-02-06T06:38:43.748Z,-5.41
2023-02-06T06:41:14.287Z,-5.29
2023-02-06T06:43:42.991Z,-5.47
2023-02-06T06:46:12.302Z,-5.27
2023-02-06T06:48:41.409Z,-5.26
2023-02-06T06:51:10.489Z,-5.04
2023-02-06T06:53:41.050Z,-5.45
2023-02-06T06:56:13.723Z,-5.20
2023-02-06T06:58:42.596Z,-5.03
2023-02-06T07:01:11.726Z,-4.73
2023-02-06T07:03:46.180Z,-4.75
2023-02-06T07:06:16.929Z,-4.40
2023-02-06T07:08:45.986Z,-4.42
2023-02-06T07:11:18.427Z,-4.45
2023-02-06T07:13:47.603Z,-4.84
2023-02-06T07:16:16.761Z,-4.46
2023-02-06T07:18:45.876Z,-4.86
2023-02-06T07:21:16.013Z,-4.59
2023-02-06T07:23:44.682Z,-4.27
2023-02-06T07:26:13.782Z,-4.66
2023-02-06T07:28:43.891Z,-3.95
2023-02-06T07:31:13.071Z,-3.50
2023-02-06T07:33:42.375Z,-3.44
2023-02-06T07:36:12.427Z,-3.25
2023-02-06T07:38:41.230Z,-2.99
2023-02-06T07:41:12.398Z,-2.90
2023-02-06T07:43:41.426Z,-3.73
2023-02-06T07:46:12.052Z,-3.52
2023-02-06T07:48:41.059Z,-3.11
2023-02-06T07:51:10.830Z,-3.06
2023-02-06T07:53:40.189Z,-3.01
2023-02-06T07:56:13.597Z,-3.12
2023-02-06T07:58:42.526Z,-2.74
2023-02-06T08:01:13.007Z,-2.51
2023-02-06T08:03:42.081Z,-3.14
2023-02-06T08:06:11.954Z,-2.93
2023-02-06T08:08:41.053Z,-3.19
2023-02-06T08:11:11.334Z,-3.23
2023-02-06T08:13:40.085Z,-3.68
2023-02-06T08:16:12.040Z,-3.29
2023-02-06T08:18:42.593Z,-2.87
2023-02-06T08:21:14.537Z,-2.63
2023-02-06T08:23:44.858Z,-3.39
2023-02-06T08:26:16.345Z,-2.72
2023-02-06T08:28:45.659Z,-2.66
2023-02-06T08:31:16.662Z,-2.36
2023-02-06T08:33:47.632Z,-3.25
2023-02-06T08:36:20.728Z,-3.09
2023-02-06T08:38:52.068Z,-2.35
2023-02-06T08:41:22.534Z,-2.13
2023-02-06T08:43:52.871Z,-2.62
2023-02-06T08:46:23.268Z,-2.61
2023-02-06T08:48:58.183Z,-2.03
2023-02-06T08:51:28.147Z,-1.60
2023-02-06T08:54:00.554Z,-1.22
2023-02-06T08:56:30.786Z,-1.68
2023-02-06T08:59:00.669Z,-0.88
2023-02-06T09:01:30.895Z,-0.34
2023-02-06T09:04:03.199Z,0.26
2023-02-06T09:06:32.849Z,1.22
2023-02-06T09:09:01.890Z,2.73
2023-02-06T09:11:31.440Z,3.32
2023-02-06T09:14:02.926Z,2.97
2023-02-06T09:16:33.353Z,2.44
2023-02-06T09:19:04.273Z,4.26
2023-02-06T09:21:35.508Z,6.48
2023-02-06T09:24:06.308Z,8.44
2023-02-06T09:26:44.849Z,10.66
2023-02-06T09:29:22.761Z,11.56
2023-02-06T09:31:51.618Z,13.67
2023-02-06T09:34:22.141Z,16.14
2023-02-06T09:36:51.201Z,16.62
2023-02-06T09:39:20.251Z,16.22
2023-02-06T09:41:51.000Z,18.01
2023-02-06T09:44:22.544Z,15.70
2023-02-06T09:46:53.572Z,16.54
2023-02-06T09:49:27.292Z,17.48
2023-02-06T09:52:14.385Z,16.25
2023-02-06T09:54:49.465Z,16.04
2023-02-06T09:57:22.407Z,17.59
2023-02-06T09:59:56.057Z,18.07
2023-02-06T10:02:38.098Z,17.88
2023-02-06T10:05:13.439Z,16.78
2023-02-06T10:07:57.401Z,18.74
2023-02-06T10:10:35.045Z,17.74
2023-02-06T10:13:07.235Z,15.31
2023-02-06T10:15:40.614Z,14.80
2023-02-06T10:18:14.767Z,17.53
2023-02-06T10:20:51.627Z,18.97
2023-02-06T10:23:24.370Z,20.06
2023-02-06T10:26:03.836Z,19.51
2023-02-06T10:28:33.770Z,19.74
2023-02-06T10:31:25.738Z,18.74
2023-02-06T10:34:04.895Z,16.97
2023-02-06T10:36:47.134Z,17.45
2023-02-06T10:39:40.623Z,19.97
2023-02-06T10:42:15.925Z,22.65
2023-02-06T10:44:51.580Z,22.63
2023-02-06T10:47:29.635Z,19.70
2023-02-06T10:50:02.427Z,18.18
2023-02-06T10:52:35.972Z,15.08
2023-02-06T10:55:14.557Z,19.67
2023-02-06T10:57:44.717Z,21.42
2023-02-06T11:00:19.079Z,18.41
2023-02-06T11:03:06.837Z,14.14
2023-02-06T11:05:37.095Z,11.70
2023-02-06T11:08:15.138Z,9.36
2023-02-06T11:10:43.872Z,9.24
2023-02-06T11:13:15.389Z,8.90
2023-02-06T11:15:50.479Z,6.65
2023-02-06T11:18:22.530Z,6.09
2023-02-06T11:20:54.258Z,6.33
2023-02-06T11:23:27.905Z,6.13
2023-02-06T11:26:09.101Z,4.67
2023-02-06T11:28:41.593Z,2.38
2023-02-06T11:31:11.990Z,1.31
2023-02-06T11:33:43.743Z,1.86
2023-02-06T11:36:25.895Z,0.98
2023-02-06T11:39:03.995Z,0.43
2023-02-06T11:41:33.489Z,0.43
2023-02-06T11:44:06.750Z,0.91
2023-02-06T11:46:36.812Z,0.92
2023-02-06T11:49:09.446Z,0.90
2023-02-06T11:51:52.712Z,0.94
2023-02-06T11:54:28.059Z,0.38
2023-02-06T11:57:03.488Z,0.39
2023-02-06T11:59:34.638Z,-0.05
2023-02-06T12:02:07.121Z,0.72
2023-02-06T12:04:39.078Z,1.20
2023-02-06T12:07:14.119Z,1.22
2023-02-06T12:09:45.336Z,0.77
2023-02-06T12:12:20.919Z,0.80
2023-02-06T12:14:53.432Z,1.00
2023-02-06T12:17:27.332Z,1.04
2023-02-06T12:20:01.866Z,1.44
2023-02-06T12:22:35.746Z,0.93
2023-02-06T12:25:06.985Z,0.92
2023-02-06T12:27:39.355Z,0.85
2023-02-06T12:30:28.628Z,0.98
2023-02-06T12:33:03.619Z,1.42
2023-02-06T12:35:37.678Z,1.02
2023-02-06T12:38:13.991Z,1.44
2023-02-06T12:40:50.199Z,2.05
2023-02-06T12:43:20.202Z,1.94
2023-02-06T12:45:54.982Z,1.77
2023-02-06T12:48:29.515Z,1.56
2023-02-06T12:51:09.909Z,2.36
2023-02-06T12:53:42.208Z,3.02
2023-02-06T12:56:21.571Z,3.35
2023-02-06T12:58:54.630Z,3.00
2023-02-06T13:01:35.793Z,2.47
2023-02-06T13:04:06.582Z,2.34
2023-02-06T13:06:47.298Z,2.58
2023-02-06T13:09:21.105Z,1.99
2023-02-06T13:11:51.838Z,1.63
2023-02-06T13:14:23.242Z,2.25
2023-02-06T13:16:54.669Z,2.47
2023-02-06T13:19:30.325Z,2.32
2023-02-06T13:22:32.898Z,1.68
2023-02-06T13:25:03.631Z,1.86
2023-02-06T13:27:41.630Z,2.31
2023-02-06T13:30:47.240Z,2.56
2023-02-06T13:33:17.759Z,2.35
2023-02-06T13:35:57.233Z,2.07
2023-02-06T13:38:29.329Z,1.68
2023-02-06T13:41:34.232Z,1.79
2023-02-06T13:44:07.533Z,1.29
2023-02-06T13:46:53.497Z,1.61
2023-02-06T13:50:08.697Z,1.73
2023-02-06T13:52:41.220Z,1.82
2023-02-06T13:55:20.488Z,1.74
2023-02-06T13:57:59.177Z,1.95
2023-02-06T14:00:32.203Z,2.02
2023-02-06T14:03:07.425Z,1.91
2023-02-06T14:05:46.459Z,1.88
2023-02-06T14:08:22.356Z,1.49
2023-02-06T14:11:33.407Z,1.64
2023-02-06T14:14:17.747Z,1.55
2023-02-06T14:16:56.839Z,1.49
2023-02-06T14:19:32.670Z,1.75
2023-02-06T14:22:06.468Z,1.85
2023-02-06T14:24:51.771Z,1.93
2023-02-06T14:27:30.439Z,2.02
2023-02-06T14:30:06.378Z,1.91
2023-02-06T14:32:44.684Z,1.58
2023-02-06T14:35:22.939Z,1.28
2023-02-06T14:38:03.699Z,0.94
2023-02-06T14:40:36.580Z,1.57
2023-02-06T14:43:07.984Z,2.64
2023-02-06T14:46:31.090Z,3.27
2023-02-06T14:49:27.303Z,4.40
2023-02-06T14:51:56.346Z,4.64
2023-02-06T14:54:33.974Z,4.18
2023-02-06T14:57:04.763Z,2.85
2023-02-06T14:59:34.506Z,2.28
2023-02-06T15:02:15.472Z,2.05
2023-02-06T15:04:48.646Z,1.50
2023-02-06T15:07:24.594Z,0.94
2023-02-06T15:09:59.944Z,0.18
2023-02-06T15:12:30.344Z,0.04
2023-02-06T15:15:04.634Z,0.28
2023-02-06T15:17:34.546Z,-0.00
2023-02-06T15:20:26.268Z,-0.00
2023-02-06T15:23:04.978Z,-0.66
2023-02-06T15:25:55.292Z,-0.42
2023-02-06T15:28:26.704Z,-0.53
2023-02-06T15:30:58.992Z,-0.80
2023-02-06T15:33:29.694Z,-0.81
2023-02-06T15:36:02.504Z,-0.74
2023-02-06T15:38:33.493Z,-0.80
2023-02-06T15:41:04.789Z,-0.80
2023-02-06T15:43:34.414Z,-1.22
2023-02-06T15:46:04.985Z,-1.38
2023-02-06T15:48:36.784Z,-1.29
2023-02-06T15:51:22.220Z,-1.57
2023-02-06T15:53:53.307Z,-1.74
2023-02-06T15:56:25.180Z,-1.60
2023-02-06T15:58:59.375Z,-1.62
2023-02-06T16:01:31.820Z,-1.78
2023-02-06T16:04:05.006Z,-1.71
2023-02-06T16:06:35.973Z,-1.69
2023-02-06T16:09:08.528Z,-1.78
2023-02-06T16:11:50.667Z,-1.82
2023-02-06T16:14:25.969Z,-1.90
2023-02-06T16:17:02.352Z,-1.71
2023-02-06T16:19:47.974Z,-1.84
2023-02-06T16:22:23.864Z,-1.76
2023-02-06T16:24:55.715Z,-1.84
2023-02-06T16:27:26.553Z,-2.01
2023-02-06T16:29:57.473Z,-1.96
2023-02-06T16:32:31.272Z,-2.05
2023-02-06T16:35:01.410Z,-2.29
2023-02-06T16:37:32.193Z,-2.38
2023-02-06T16:40:01.430Z,-2.31
2023-02-06T16:42:35.499Z,-2.21
2023-02-06T16:45:09.460Z,-2.30
2023-02-06T16:47:38.407Z,-2.38
2023-02-06T16:50:10.190Z,-2.41
2023-02-06T16:52:42.780Z,-2.30
2023-02-06T16:55:19.335Z,-1.96
2023-02-06T16:57:50.307Z,-2.00
2023-02-06T17:00:19.968Z,-1.98
2023-02-06T17:02:52.095Z,-2.13
2023-02-06T17:05:22.669Z,-2.20
2023-02-06T17:07:53.856Z,-2.22
2023-02-06T17:10:25.321Z,-2.20
2023-02-06T17:12:54.394Z,-2.22
2023-02-06T17:15:23.413Z,-2.58
2023-02-06T17:17:54.681Z,-2.40
2023-02-06T17:20:29.677Z,-2.33
2023-02-06T17:22:59.844Z,-2.43
2023-02-06T17:25:28.987Z,-2.28
2023-02-06T17:27:58.256Z,-2.52
2023-02-06T17:30:27.883Z,-2.52
2023-02-06T17:32:57.969Z,-2.71
2023-02-06T17:35:26.910Z,-2.76
2023-02-06T17:37:55.557Z,-2.97
2023-02-06T17:40:27.362Z,-2.95
2023-02-06T17:42:56.977Z,-2.95
2023-02-06T17:45:26.324Z,-2.63
2023-02-06T17:47:55.670Z,-2.65
2023-02-06T17:50:25.933Z,-2.59
2023-02-06T17:52:56.362Z,-2.69
2023-02-06T17:55:27.461Z,-2.75
2023-02-06T17:57:56.660Z,-2.75
2023-02-06T18:00:26.414Z,-3.01
2023-02-06T18:02:56.768Z,-2.86
2023-02-06T18:05:26.226Z,-3.29
2023-02-06T18:07:55.155Z,-3.10
2023-02-06T18:10:26.924Z,-2.89
2023-02-06T18:12:56.151Z,-3.22
2023-02-06T18:15:25.294Z,-3.16
2023-02-06T18:17:55.124Z,-2.83
2023-02-06T18:20:24.072Z,-2.91
2023-02-06T18:22:52.896Z,-2.49
2023-02-06T18:25:22.347Z,-2.50
2023-02-06T18:27:53.135Z,-2.67
2023-02-06T18:30:22.450Z,-2.57
2023-02-06T18:32:51.788Z,-2.01
2023-02-06T18:35:20.872Z,-1.64
2023-02-06T18:37:50.209Z,-1.81
2023-02-06T18:40:19.601Z,-2.14
2023-02-06T18:42:54.628Z,-2.67
2023-02-06T18:45:31.213Z,-2.85
2023-02-06T18:48:00.240Z,-2.84
2023-02-06T18:50:29.751Z,-2.74
2023-02-06T18:52:59.310Z,-2.98
2023-02-06T18:55:28.086Z,-2.60
2023-02-06T18:57:57.130Z,-2.89
2023-02-06T19:00:27.818Z,-2.89
2023-02-06T19:02:59.107Z,-3.15
2023-02-06T19:05:29.143Z,-2.96
2023-02-06T19:07:57.967Z,-2.83
2023-02-06T19:10:27.110Z,-2.73
2023-02-06T19:12:56.262Z,-2.76
2023-02-06T19:15:25.360Z,-2.95
2023-02-06T19:17:55.932Z,-3.14
2023-02-06T19:20:25.288Z,-3.34
2023-02-06T19:22:54.208Z,-3.01
2023-02-06T19:25:23.555Z,-3.18
2023-02-06T19:27:52.636Z,-3.07
2023-02-06T19:30:21.758Z,-2.90
2023-02-06T19:32:51.623Z,-3.03
2023-02-06T19:35:22.129Z,-2.82
2023-02-06T19:37:51.959Z,-3.26
2023-02-06T19:40:22.227Z,-3.18
2023-02-06T19:42:50.998Z,-3.21
2023-02-06T19:45:20.100Z,-3.16
2023-02-06T19:47:49.178Z,-3.68
2023-02-06T19:50:18.326Z,-3.40
2023-02-06T19:52:48.387Z,-3.27
2023-02-06T19:55:17.514Z,-3.40
2023-02-06T19:57:46.636Z,-3.39
2023-02-06T20:00:16.288Z,-3.19
2023-02-06T20:02:46.481Z,-3.10
2023-02-06T20:05:15.520Z,-3.22
2023-02-06T20:07:44.302Z,-3.34
2023-02-06T20:10:14.715Z,-3.24
2023-02-06T20:12:43.668Z,-3.34
2023-02-06T20:15:13.234Z,-3.58
2023-02-06T20:17:42.468Z,-3.62
2023-02-06T20:20:12.903Z,-3.37
2023-02-06T20:22:41.458Z,-3.09
2023-02-06T20:25:10.982Z,-3.19
2023-02-06T20:27:41.526Z,-3.23
2023-02-06T20:30:11.744Z,-3.34
2023-02-06T20:32:41.176Z,-3.23
2023-02-06T20:35:10.432Z,-3.72
2023-02-06T20:37:40.018Z,-3.57
2023-02-06T20:40:10.847Z,-3.57
2023-02-06T20:42:44.800Z,-3.56
2023-02-06T20:45:13.901Z,-3.96
2023-02-06T20:47:42.907Z,-3.87
2023-02-06T20:50:12.812Z,-4.15
2023-02-06T20:52:41.563Z,-3.82
2023-02-06T20:55:11.029Z,-3.69
2023-02-06T20:57:41.449Z,-3.77
2023-02-06T21:00:13.256Z,-3.53
2023-02-06T21:02:42.268Z,-3.62
2023-02-06T21:05:11.251Z,-3.79
2023-02-06T21:07:40.275Z,-3.86
2023-02-06T21:10:09.735Z,-3.76
2023-02-06T21:12:38.727Z,-3.92
2023-02-06T21:15:10.434Z,-3.71
2023-02-06T21:17:39.489Z,-3.80
2023-02-06T21:20:09.757Z,-3.70
2023-02-06T21:22:38.479Z,-3.79
2023-02-06T21:25:08.101Z,-3.80
2023-02-06T21:27:37.446Z,-3.76
2023-02-06T21:30:09.325Z,-3.75
2023-02-06T21:32:38.327Z,-3.82
2023-02-06T21:35:09.717Z,-3.64
2023-02-06T21:37:39.366Z,-3.83
2023-02-06T21:40:08.761Z,-4.19
2023-02-06T21:42:37.719Z,-3.99
2023-02-06T21:45:09.483Z,-4.00
2023-02-06T21:47:38.531Z,-4.11
2023-02-06T21:50:08.529Z,-4.00
2023-02-06T21:52:37.472Z,-3.96
2023-02-06T21:55:07.702Z,-3.97
2023-02-06T21:57:36.854Z,-3.86
2023-02-06T22:00:06.759Z,-3.96
2023-02-06T22:02:42.984Z,-4.11
2023-02-06T22:05:12.016Z,-4.26
2023-02-06T22:07:40.731Z,-4.14
2023-02-06T22:10:11.003Z,-4.09
2023-02-06T22:12:40.151Z,-4.04
2023-02-06T22:15:10.233Z,-4.35
2023-02-06T22:17:38.851Z,-4.07
2023-02-06T22:20:10.030Z,-4.16
2023-02-06T22:22:38.832Z,-4.40
2023-02-06T22:25:08.614Z,-4.42
2023-02-06T22:27:37.598Z,-4.48
2023-02-06T22:30:07.403Z,-4.59
2023-02-06T22:32:38.151Z,-4.73
2023-02-06T22:35:08.880Z,-4.76
2023-02-06T22:37:37.482Z,-4.61
2023-02-06T22:40:07.402Z,-4.12
2023-02-06T22:42:36.606Z,-4.24
2023-02-06T22:45:06.396Z,-4.05
2023-02-06T22:47:35.463Z,-3.81
2023-02-06T22:50:04.490Z,-3.44
2023-02-06T22:52:52.225Z,-3.67
2023-02-06T22:55:21.250Z,-3.67
2023-02-06T22:57:50.121Z,-3.91
2023-02-06T23:00:19.311Z,-4.07
2023-02-06T23:02:49.545Z,-3.43
2023-02-06T23:25:21.556Z,-3.65
2023-02-06T23:27:50.784Z,-4.03
2023-02-06T23:30:23.060Z,-4.01
2023-02-06T23:32:52.250Z,-3.67
2023-02-06T23:35:22.374Z,-3.64
2023-02-06T23:37:51.097Z,-3.79
2023-02-06T23:40:22.097Z,-3.85
2023-02-06T23:42:51.156Z,-3.56
2023-02-06T23:45:20.205Z,-3.91
2023-02-06T23:47:49.101Z,-4.00
2023-02-06T23:50:18.348Z,-3.60
2023-02-06T23:52:47.005Z,-3.37
2023-02-06T23:55:15.986Z,-3.82
2023-02-06T23:57:46.640Z,-3.58
